Picton Castle — E5WP — position and weather

sailwx.info

Track history (hours):
 
Tides and Currents Weather Stations Pressure Air Temp Water Temp Dewpoint Dewpoint Depression Visibility Wind Speed Wind Dir Waves Ship Positions

Picton Castle (Cook Islands)

Ship's website: http://www.picton-castle.com/

Last reported at 2019-Sep-11 06:11 UTC. Time now 2019-Oct-22 23:35 UTC.
Position N 44°24' W 063°03'.
Warning: this ship's position is 41 days out of date.

Length 37 m; draft 4.6 m.

Type: Sailing vessel. MMSI: 518000019.

Date/timePositionNaut miles runAvg speedWind from/ knotsBaromVisibWave heightAir tempDewpointWater temp
2019-Sep-11 06:11N 44°24' W 063°03'  
2019-Sep-05 16:39N 46°04' W 073°05'2 9.0
2019-Sep-05 16:29N 46°03' W 073°07'6 8.8
2019-Sep-05 15:45N 45°58' W 073°12'2 9.6
2019-Sep-05 15:30N 45°56' W 073°13'5 9.4
2019-Sep-05 15:00N 45°51' W 073°16'13 9.4
2019-Sep-05 13:38N 45°41' W 073°27'1 9.8
2019-Sep-05 13:30N 45°40' W 073°28'4 8.2
2019-Sep-05 13:00N 45°36' W 073°30'4 7.8
2019-Sep-05 12:30N 45°32' W 073°32'0 0.6
2019-Sep-05 12:00N 45°32' W 073°32'0 0.1
2019-Sep-05 11:27N 45°32' W 073°32'0 0.0
2019-Sep-05 10:58N 45°32' W 073°32'0 0.1
2019-Sep-05 10:28N 45°32' W 073°32'0 0.0
2019-Sep-05 09:58N 45°32' W 073°32'0 0.0
2019-Sep-05 09:28N 45°32' W 073°32'0 0.0
2019-Sep-05 08:58N 45°32' W 073°32'0 0.0
2019-Sep-05 08:25N 45°32' W 073°32'0 0.0
2019-Sep-05 07:58N 45°32' W 073°32'0 0.0
2019-Sep-05 07:28N 45°32' W 073°32'0 0.0
2019-Sep-05 06:58N 45°32' W 073°32'0 0.0
2019-Sep-05 06:28N 45°32' W 073°32'0 0.0
2019-Sep-05 05:52N 45°32' W 073°32'0 0.0
2019-Sep-05 05:28N 45°32' W 073°32'0 0.0
2019-Sep-05 04:58N 45°32' W 073°32'0 0.0
2019-Sep-05 04:28N 45°32' W 073°32'0 0.0
2019-Sep-05 03:58N 45°32' W 073°32'0 0.0
2019-Sep-05 03:28N 45°32' W 073°32'0 0.0
2019-Sep-05 02:58N 45°32' W 073°32'0 0.0
2019-Sep-05 02:28N 45°32' W 073°32'0 0.0
2019-Sep-05 01:22N 45°32' W 073°32'0 0.0
2019-Sep-05 00:58N 45°32' W 073°32'0 0.0
2019-Sep-05 00:28N 45°32' W 073°32'0 0.0
2019-Sep-04 23:58N 45°32' W 073°32'0 0.0
2019-Sep-04 23:30N 45°32' W 073°32'0 0.0
2019-Sep-04 23:00N 45°32' W 073°32'0 0.0
2019-Sep-04 22:30N 45°32' W 073°32'0 0.0
2019-Sep-04 22:01N 45°32' W 073°32'0 0.0
2019-Sep-04 21:28N 45°32' W 073°32'0 0.0
2019-Sep-04 20:58N 45°32' W 073°32'0 0.0
2019-Sep-04 20:28N 45°32' W 073°32'0 0.0
2019-Sep-04 19:55N 45°32' W 073°32'0 0.0
2019-Sep-04 19:28N 45°32' W 073°32'0 0.0
2019-Sep-04 18:58N 45°32' W 073°32'0 0.0
2019-Sep-04 18:25N 45°32' W 073°32'0 0.0
2019-Sep-04 17:58N 45°32' W 073°32'0 0.0
2019-Sep-04 17:28N 45°32' W 073°32'0 0.0
2019-Sep-04 16:58N 45°32' W 073°32'0 0.0
2019-Sep-04 16:28N 45°32' W 073°32'0 0.0
2019-Sep-04 15:58N 45°32' W 073°32'0 0.0
2019-Sep-04 15:25N 45°32' W 073°32'0 0.0
2019-Sep-04 14:58N 45°32' W 073°32'0 0.0
2019-Sep-04 14:28N 45°32' W 073°32'0 0.0
2019-Sep-04 13:58N 45°32' W 073°32'0 0.0
2019-Sep-04 13:28N 45°32' W 073°32'0 0.0
2019-Sep-04 12:58N 45°32' W 073°32'0 0.0
2019-Sep-04 12:28N 45°32' W 073°32'0 0.0
2019-Sep-04 11:52N 45°32' W 073°32'0 0.0
2019-Sep-04 11:28N 45°32' W 073°32'0 0.0
2019-Sep-04 10:58N 45°32' W 073°32'0 0.0
2019-Sep-04 10:28N 45°32' W 073°32'0 0.0
2019-Sep-04 09:58N 45°32' W 073°32'0 0.0
2019-Sep-04 09:28N 45°32' W 073°32'0 0.0
2019-Sep-04 08:58N 45°32' W 073°32'0 0.0
2019-Sep-04 08:28N 45°32' W 073°32'0 0.0
2019-Sep-04 07:58N 45°32' W 073°32'0 0.0
2019-Sep-04 07:28N 45°32' W 073°32'0 0.0
2019-Sep-04 06:58N 45°32' W 073°32'0 0.0
2019-Sep-04 06:28N 45°32' W 073°32'0 0.0
2019-Sep-04 05:58N 45°32' W 073°32'0 0.0
2019-Sep-04 05:28N 45°32' W 073°32'0 0.0
2019-Sep-04 04:58N 45°32' W 073°32'0 0.0
2019-Sep-04 04:28N 45°32' W 073°32'0 0.0
2019-Sep-04 03:46N 45°32' W 073°32'0 0.0
2019-Sep-04 03:28N 45°32' W 073°32'0 0.0
2019-Sep-04 02:58N 45°32' W 073°32'0 0.0
2019-Sep-04 02:28N 45°32' W 073°32'0 0.0
2019-Sep-04 01:55N 45°32' W 073°32'0 0.0
2019-Sep-04 01:28N 45°32' W 073°32'0 0.0
2019-Sep-04 00:58N 45°32' W 073°32'0 0.0
2019-Sep-04 00:28N 45°32' W 073°32'0 0.0
2019-Sep-03 23:58N 45°32' W 073°32'0 0.0
2019-Sep-03 23:28N 45°32' W 073°32'0 0.0
2019-Sep-03 22:58N 45°32' W 073°32'0 0.0
2019-Sep-03 22:28N 45°32' W 073°32'0 0.0
2019-Sep-03 21:58N 45°32' W 073°32'0 0.0
2019-Sep-03 21:28N 45°32' W 073°32'0 0.0
2019-Sep-03 20:58N 45°32' W 073°32'0 0.0
2019-Sep-03 20:28N 45°32' W 073°32'0 0.0
2019-Sep-03 19:58N 45°32' W 073°32'0 0.0
2019-Sep-03 19:28N 45°32' W 073°32'0 0.0
2019-Sep-03 18:55N 45°32' W 073°32'0 0.0
2019-Sep-03 18:28N 45°32' W 073°32'0 0.0
2019-Sep-03 17:58N 45°32' W 073°32'0 0.0
2019-Sep-03 17:28N 45°32' W 073°32'0 0.0
2019-Sep-03 16:58N 45°32' W 073°32'0 0.0
2019-Sep-03 16:25N 45°32' W 073°32'0 0.0
2019-Sep-03 15:58N 45°32' W 073°32'0 0.0
2019-Sep-03 15:28N 45°32' W 073°32'0 0.0
2019-Sep-03 15:00N 45°32' W 073°32'0 0.0
2019-Sep-03 14:29N 45°32' W 073°32'0 0.0
2019-Sep-03 14:00N 45°32' W 073°32'0 0.0
2019-Sep-03 13:27N 45°32' W 073°32'0 0.0
2019-Sep-03 12:57N 45°32' W 073°32'0 0.1
2019-Sep-03 12:30N 45°32' W 073°32'0 0.0
2019-Sep-03 11:57N 45°32' W 073°32'0 0.0
2019-Sep-03 11:30N 45°32' W 073°32'0 0.0
2019-Sep-03 11:00N 45°32' W 073°32'0 0.0
2019-Sep-03 10:30N 45°32' W 073°32'0 0.0
2019-Sep-03 09:57N 45°32' W 073°32'0 0.0
2019-Sep-03 09:27N 45°32' W 073°32'0 0.1
2019-Sep-03 09:00N 45°32' W 073°32'0 0.1
2019-Sep-03 08:30N 45°32' W 073°32'0 0.0
2019-Sep-03 08:00N 45°32' W 073°32'0 0.0
2019-Sep-03 07:30N 45°32' W 073°32'0 0.0
2019-Sep-03 07:00N 45°32' W 073°32'0 0.0
2019-Sep-03 06:30N 45°32' W 073°32'0 0.1
2019-Sep-03 05:57N 45°32' W 073°32'0 0.0
2019-Sep-03 05:29N 45°32' W 073°32'0 0.0
2019-Sep-03 04:59N 45°32' W 073°32'0 0.1
2019-Sep-03 04:29N 45°32' W 073°32'0 0.0
2019-Sep-03 03:56N 45°32' W 073°32'0 0.0
2019-Sep-03 03:29N 45°32' W 073°32'0 0.0
2019-Sep-03 02:59N 45°32' W 073°32'0 0.0
2019-Sep-03 02:26N 45°32' W 073°32'0 0.0
2019-Sep-03 01:59N 45°32' W 073°32'0 0.0
2019-Sep-03 01:26N 45°32' W 073°32'0 0.0
2019-Sep-03 00:59N 45°32' W 073°32'0 0.0
2019-Sep-03 00:29N 45°32' W 073°32'0 0.0
2019-Sep-02 23:59N 45°32' W 073°32'0 0.0
2019-Sep-02 23:29N 45°32' W 073°32'0 0.0
2019-Sep-02 22:59N 45°32' W 073°32'0 0.0
2019-Sep-02 22:29N 45°32' W 073°32'0 0.0
2019-Sep-02 21:59N 45°32' W 073°32'0 0.0
2019-Sep-02 21:29N 45°32' W 073°32'0 0.0
2019-Sep-02 20:59N 45°32' W 073°32'0 0.0
2019-Sep-02 20:29N 45°32' W 073°32'0 0.0
2019-Sep-02 19:59N 45°32' W 073°32'0 0.0
2019-Sep-02 19:29N 45°32' W 073°32'0 0.0
2019-Sep-02 18:59N 45°32' W 073°32'0 0.0
2019-Sep-02 18:29N 45°32' W 073°32'0 0.0
2019-Sep-02 17:59N 45°32' W 073°32'0 0.0
2019-Sep-02 17:29N 45°32' W 073°32'0 0.0
2019-Sep-02 16:59N 45°32' W 073°32'0 0.0
2019-Sep-02 16:29N 45°32' W 073°32'0 0.0
2019-Sep-02 15:59N 45°32' W 073°32'0 0.0
2019-Sep-02 15:29N 45°32' W 073°32'0 0.0
2019-Sep-02 14:59N 45°32' W 073°32'0 0.0
2019-Sep-02 14:29N 45°32' W 073°32'0 0.0
2019-Sep-02 13:58N 45°32' W 073°32'0 0.0
2019-Sep-02 13:28N 45°32' W 073°32'0 0.0
2019-Sep-02 13:00N 45°32' W 073°32'0 0.0
2019-Sep-02 12:30N 45°32' W 073°32'0 0.1
2019-Sep-02 12:00N 45°32' W 073°32'0 0.0
2019-Sep-02 11:30N 45°32' W 073°32'0 0.0
2019-Sep-02 11:00N 45°32' W 073°32'0 0.0
2019-Sep-02 10:30N 45°32' W 073°32'0 0.0
2019-Sep-02 10:01N 45°32' W 073°32'0 0.6
2019-Sep-02 09:30N 45°32' W 073°32'2 4.5
2019-Sep-02 09:00N 45°30' W 073°31'0 0.6
2019-Sep-02 08:30N 45°29' W 073°31'2 4.1
2019-Sep-02 08:00N 45°28' W 073°30'3 6.5
2019-Sep-02 07:30N 45°24' W 073°32'1 2.9
2019-Sep-02 07:00N 45°24' W 073°34'2 3.8
2019-Sep-02 06:30N 45°24' W 073°37'3 5.7
2019-Sep-02 06:00N 45°25' W 073°41'3 6.8
2019-Sep-02 05:30N 45°24' W 073°45'6 8.0
2019-Sep-02 04:43N 45°21' W 073°53'2 7.8
2019-Sep-02 04:27N 45°19' W 073°55'0 0.9
2019-Sep-02 03:59N 45°19' W 073°55'1 1.5
2019-Sep-02 03:29N 45°18' W 073°56'0 0.6
2019-Sep-02 03:00N 45°18' W 073°56'6 6.6
2019-Sep-02 02:08N 45°14' W 074°01'84 7.0
2019-Sep-01 14:02N 44°32' W 075°44'0 9.1
2019-Sep-01 14:00N 44°32' W 075°45'4 7.9
2019-Sep-01 13:30N 44°29' W 075°47'  
Track history (hours):
 
Tides and Currents Weather Stations Pressure Air Temp Water Temp Dewpoint Dewpoint Depression Visibility Wind Speed Wind Dir Waves Ship Positions

Picton Castle (Cook Islands)

Ship's website: http://www.picton-castle.com/

Last reported at 2019-Sep-11 06:11 UTC. Time now 2019-Oct-22 23:35 UTC.
Position N 44°24' W 063°03'.
Warning: this ship's position is 41 days out of date.

Length 37 m; draft 4.6 m.

Type: Sailing vessel. MMSI: 518000019.

Date/timePositionNaut miles runAvg speedWind from/ knotsBaromVisibWave heightAir tempDewpointWater temp
2019-Sep-11 06:11N 44°24' W 063°03'  
2019-Sep-05 16:39N 46°04' W 073°05'2 9.0
2019-Sep-05 16:29N 46°03' W 073°07'6 8.8
2019-Sep-05 15:45N 45°58' W 073°12'2 9.6
2019-Sep-05 15:30N 45°56' W 073°13'5 9.4
2019-Sep-05 15:00N 45°51' W 073°16'13 9.4
2019-Sep-05 13:38N 45°41' W 073°27'1 9.8
2019-Sep-05 13:30N 45°40' W 073°28'4 8.2
2019-Sep-05 13:00N 45°36' W 073°30'4 7.8
2019-Sep-05 12:30N 45°32' W 073°32'0 0.6
2019-Sep-05 12:00N 45°32' W 073°32'0 0.1
2019-Sep-05 11:27N 45°32' W 073°32'0 0.0
2019-Sep-05 10:58N 45°32' W 073°32'0 0.1
2019-Sep-05 10:28N 45°32' W 073°32'0 0.0
2019-Sep-05 09:58N 45°32' W 073°32'0 0.0
2019-Sep-05 09:28N 45°32' W 073°32'0 0.0
2019-Sep-05 08:58N 45°32' W 073°32'0 0.0
2019-Sep-05 08:25N 45°32' W 073°32'0 0.0
2019-Sep-05 07:58N 45°32' W 073°32'0 0.0
2019-Sep-05 07:28N 45°32' W 073°32'0 0.0
2019-Sep-05 06:58N 45°32' W 073°32'0 0.0
2019-Sep-05 06:28N 45°32' W 073°32'0 0.0
2019-Sep-05 05:52N 45°32' W 073°32'0 0.0
2019-Sep-05 05:28N 45°32' W 073°32'0 0.0
2019-Sep-05 04:58N 45°32' W 073°32'0 0.0
2019-Sep-05 04:28N 45°32' W 073°32'0 0.0
2019-Sep-05 03:58N 45°32' W 073°32'0 0.0
2019-Sep-05 03:28N 45°32' W 073°32'0 0.0
2019-Sep-05 02:58N 45°32' W 073°32'0 0.0
2019-Sep-05 02:28N 45°32' W 073°32'0 0.0
2019-Sep-05 01:22N 45°32' W 073°32'0 0.0
2019-Sep-05 00:58N 45°32' W 073°32'0 0.0
2019-Sep-05 00:28N 45°32' W 073°32'0 0.0
2019-Sep-04 23:58N 45°32' W 073°32'0 0.0
2019-Sep-04 23:30N 45°32' W 073°32'0 0.0
2019-Sep-04 23:00N 45°32' W 073°32'0 0.0
2019-Sep-04 22:30N 45°32' W 073°32'0 0.0
2019-Sep-04 22:01N 45°32' W 073°32'0 0.0
2019-Sep-04 21:28N 45°32' W 073°32'0 0.0
2019-Sep-04 20:58N 45°32' W 073°32'0 0.0
2019-Sep-04 20:28N 45°32' W 073°32'0 0.0
2019-Sep-04 19:55N 45°32' W 073°32'0 0.0
2019-Sep-04 19:28N 45°32' W 073°32'0 0.0
2019-Sep-04 18:58N 45°32' W 073°32'0 0.0
2019-Sep-04 18:25N 45°32' W 073°32'0 0.0
2019-Sep-04 17:58N 45°32' W 073°32'0 0.0
2019-Sep-04 17:28N 45°32' W 073°32'0 0.0
2019-Sep-04 16:58N 45°32' W 073°32'0 0.0
2019-Sep-04 16:28N 45°32' W 073°32'0 0.0
2019-Sep-04 15:58N 45°32' W 073°32'0 0.0
2019-Sep-04 15:25N 45°32' W 073°32'0 0.0
2019-Sep-04 14:58N 45°32' W 073°32'0 0.0
2019-Sep-04 14:28N 45°32' W 073°32'0 0.0
2019-Sep-04 13:58N 45°32' W 073°32'0 0.0
2019-Sep-04 13:28N 45°32' W 073°32'0 0.0
2019-Sep-04 12:58N 45°32' W 073°32'0 0.0
2019-Sep-04 12:28N 45°32' W 073°32'0 0.0
2019-Sep-04 11:52N 45°32' W 073°32'0 0.0
2019-Sep-04 11:28N 45°32' W 073°32'0 0.0
2019-Sep-04 10:58N 45°32' W 073°32'0 0.0
2019-Sep-04 10:28N 45°32' W 073°32'0 0.0
2019-Sep-04 09:58N 45°32' W 073°32'0 0.0
2019-Sep-04 09:28N 45°32' W 073°32'0 0.0
2019-Sep-04 08:58N 45°32' W 073°32'0 0.0
2019-Sep-04 08:28N 45°32' W 073°32'0 0.0
2019-Sep-04 07:58N 45°32' W 073°32'0 0.0
2019-Sep-04 07:28N 45°32' W 073°32'0 0.0
2019-Sep-04 06:58N 45°32' W 073°32'0 0.0
2019-Sep-04 06:28N 45°32' W 073°32'0 0.0
2019-Sep-04 05:58N 45°32' W 073°32'0 0.0
2019-Sep-04 05:28N 45°32' W 073°32'0 0.0
2019-Sep-04 04:58N 45°32' W 073°32'0 0.0
2019-Sep-04 04:28N 45°32' W 073°32'0 0.0
2019-Sep-04 03:46N 45°32' W 073°32'0 0.0
2019-Sep-04 03:28N 45°32' W 073°32'0 0.0
2019-Sep-04 02:58N 45°32' W 073°32'0 0.0
2019-Sep-04 02:28N 45°32' W 073°32'0 0.0
2019-Sep-04 01:55N 45°32' W 073°32'0 0.0
2019-Sep-04 01:28N 45°32' W 073°32'0 0.0
2019-Sep-04 00:58N 45°32' W 073°32'0 0.0
2019-Sep-04 00:28N 45°32' W 073°32'0 0.0
2019-Sep-03 23:58N 45°32' W 073°32'0 0.0
2019-Sep-03 23:28N 45°32' W 073°32'0 0.0
2019-Sep-03 22:58N 45°32' W 073°32'0 0.0
2019-Sep-03 22:28N 45°32' W 073°32'0 0.0
2019-Sep-03 21:58N 45°32' W 073°32'0 0.0
2019-Sep-03 21:28N 45°32' W 073°32'0 0.0
2019-Sep-03 20:58N 45°32' W 073°32'0 0.0
2019-Sep-03 20:28N 45°32' W 073°32'0 0.0
2019-Sep-03 19:58N 45°32' W 073°32'0 0.0
2019-Sep-03 19:28N 45°32' W 073°32'0 0.0
2019-Sep-03 18:55N 45°32' W 073°32'0 0.0
2019-Sep-03 18:28N 45°32' W 073°32'0 0.0
2019-Sep-03 17:58N 45°32' W 073°32'0 0.0
2019-Sep-03 17:28N 45°32' W 073°32'0 0.0
2019-Sep-03 16:58N 45°32' W 073°32'0 0.0
2019-Sep-03 16:25N 45°32' W 073°32'0 0.0
2019-Sep-03 15:58N 45°32' W 073°32'0 0.0
2019-Sep-03 15:28N 45°32' W 073°32'0 0.0
2019-Sep-03 15:00N 45°32' W 073°32'0 0.0
2019-Sep-03 14:29N 45°32' W 073°32'0 0.0
2019-Sep-03 14:00N 45°32' W 073°32'0 0.0
2019-Sep-03 13:27N 45°32' W 073°32'0 0.0
2019-Sep-03 12:57N 45°32' W 073°32'0 0.1
2019-Sep-03 12:30N 45°32' W 073°32'0 0.0
2019-Sep-03 11:57N 45°32' W 073°32'0 0.0
2019-Sep-03 11:30N 45°32' W 073°32'0 0.0
2019-Sep-03 11:00N 45°32' W 073°32'0 0.0
2019-Sep-03 10:30N 45°32' W 073°32'0 0.0
2019-Sep-03 09:57N 45°32' W 073°32'0 0.0
2019-Sep-03 09:27N 45°32' W 073°32'0 0.1
2019-Sep-03 09:00N 45°32' W 073°32'0 0.1
2019-Sep-03 08:30N 45°32' W 073°32'0 0.0
2019-Sep-03 08:00N 45°32' W 073°32'0 0.0
2019-Sep-03 07:30N 45°32' W 073°32'0 0.0
2019-Sep-03 07:00N 45°32' W 073°32'0 0.0
2019-Sep-03 06:30N 45°32' W 073°32'0 0.1
2019-Sep-03 05:57N 45°32' W 073°32'0 0.0
2019-Sep-03 05:29N 45°32' W 073°32'0 0.0
2019-Sep-03 04:59N 45°32' W 073°32'0 0.1
2019-Sep-03 04:29N 45°32' W 073°32'0 0.0
2019-Sep-03 03:56N 45°32' W 073°32'0 0.0
2019-Sep-03 03:29N 45°32' W 073°32'0 0.0
2019-Sep-03 02:59N 45°32' W 073°32'0 0.0
2019-Sep-03 02:26N 45°32' W 073°32'0 0.0
2019-Sep-03 01:59N 45°32' W 073°32'0 0.0
2019-Sep-03 01:26N 45°32' W 073°32'0 0.0
2019-Sep-03 00:59N 45°32' W 073°32'0 0.0
2019-Sep-03 00:29N 45°32' W 073°32'0 0.0
2019-Sep-02 23:59N 45°32' W 073°32'0 0.0
2019-Sep-02 23:29N 45°32' W 073°32'0 0.0
2019-Sep-02 22:59N 45°32' W 073°32'0 0.0
2019-Sep-02 22:29N 45°32' W 073°32'0 0.0
2019-Sep-02 21:59N 45°32' W 073°32'0 0.0
2019-Sep-02 21:29N 45°32' W 073°32'0 0.0
2019-Sep-02 20:59N 45°32' W 073°32'0 0.0
2019-Sep-02 20:29N 45°32' W 073°32'0 0.0
2019-Sep-02 19:59N 45°32' W 073°32'0 0.0
2019-Sep-02 19:29N 45°32' W 073°32'0 0.0
2019-Sep-02 18:59N 45°32' W 073°32'0 0.0
2019-Sep-02 18:29N 45°32' W 073°32'0 0.0
2019-Sep-02 17:59N 45°32' W 073°32'0 0.0
2019-Sep-02 17:29N 45°32' W 073°32'0 0.0
2019-Sep-02 16:59N 45°32' W 073°32'0 0.0
2019-Sep-02 16:29N 45°32' W 073°32'0 0.0
2019-Sep-02 15:59N 45°32' W 073°32'0 0.0
2019-Sep-02 15:29N 45°32' W 073°32'0 0.0
2019-Sep-02 14:59N 45°32' W 073°32'0 0.0
2019-Sep-02 14:29N 45°32' W 073°32'0 0.0
2019-Sep-02 13:58N 45°32' W 073°32'0 0.0
2019-Sep-02 13:28N 45°32' W 073°32'0 0.0
2019-Sep-02 13:00N 45°32' W 073°32'0 0.0
2019-Sep-02 12:30N 45°32' W 073°32'0 0.1
2019-Sep-02 12:00N 45°32' W 073°32'0 0.0
2019-Sep-02 11:30N 45°32' W 073°32'0 0.0
2019-Sep-02 11:00N 45°32' W 073°32'0 0.0
2019-Sep-02 10:30N 45°32' W 073°32'0 0.0
2019-Sep-02 10:01N 45°32' W 073°32'0 0.6
2019-Sep-02 09:30N 45°32' W 073°32'2 4.5
2019-Sep-02 09:00N 45°30' W 073°31'0 0.6
2019-Sep-02 08:30N 45°29' W 073°31'2 4.1
2019-Sep-02 08:00N 45°28' W 073°30'3 6.5
2019-Sep-02 07:30N 45°24' W 073°32'1 2.9
2019-Sep-02 07:00N 45°24' W 073°34'2 3.8
2019-Sep-02 06:30N 45°24' W 073°37'3 5.7
2019-Sep-02 06:00N 45°25' W 073°41'3 6.8
2019-Sep-02 05:30N 45°24' W 073°45'6 8.0
2019-Sep-02 04:43N 45°21' W 073°53'2 7.8
2019-Sep-02 04:27N 45°19' W 073°55'0 0.9
2019-Sep-02 03:59N 45°19' W 073°55'1 1.5
2019-Sep-02 03:29N 45°18' W 073°56'0 0.6
2019-Sep-02 03:00N 45°18' W 073°56'6 6.6
2019-Sep-02 02:08N 45°14' W 074°01'84 7.0
2019-Sep-01 14:02N 44°32' W 075°44'0 9.1
2019-Sep-01 14:00N 44°32' W 075°45'4 7.9
2019-Sep-01 13:30N 44°29' W 075°47'  

Dump ship's entire track history